Tipton, Iowa
Current Conditions -  °F | °C
As of 6:52 PM on Friday 19 Dec 2014 (Local Time) from KIOW Reporting Station
Overcast Overcast  
Wind Chill: 25°   Ceiling: 2700
Heat Index: 30°   Visibility: 10mi
Dew Point: 21°   Wind: 5mph
Humidity: 69%   Direction: 110°ESE
Pressure: 30.27"   Gusts: NA
Location:  41.77°N, 91.13°W
Report Text: KIOW 200052Z AUTO 11004KT 10SM OVC027 M01/M06 A3027 RMK AO2 SLP259 T10111061
Loading
Personal Weather Stations






























Interactive Weather Map New forecast layout! Learn more

10-Day Weather Forecast

Advertisements
Track Severe Weather on mobile